sensor_id;sensor_type;location;lat;lon;timestamp;pressure;altitude;pressure_sealevel;temperature;humidity
498;BME280;39559;48.630;9.162;2023-04-23T00:02:51;96838.50;;;11.88;100.00
498;BME280;39559;48.630;9.162;2023-04-23T00:05:18;96837.44;;;11.93;100.00
498;BME280;39559;48.630;9.162;2023-04-23T00:07:44;96832.47;;;11.88;100.00
498;BME280;39559;48.630;9.162;2023-04-23T00:10:11;96824.84;;;11.85;100.00
498;BME280;39559;48.630;9.162;2023-04-23T00:12:37;96829.31;;;11.83;100.00
498;BME280;39559;48.630;9.162;2023-04-23T00:15:03;96830.50;;;11.77;100.00
498;BME280;39559;48.630;9.162;2023-04-23T00:17:29;96825.72;;;11.69;100.00
498;BME280;39559;48.630;9.162;2023-04-23T00:19:55;96831.50;;;11.75;100.00
498;BME280;39559;48.630;9.162;2023-04-23T00:22:21;96827.78;;;11.79;100.00
498;BME280;39559;48.630;9.162;2023-04-23T00:26:44;96829.75;;;11.75;100.00
498;BME280;39559;48.630;9.162;2023-04-23T00:29:10;96832.69;;;11.69;100.00
498;BME280;39559;48.630;9.162;2023-04-23T00:31:35;96830.66;;;11.74;100.00
498;BME280;39559;48.630;9.162;2023-04-23T00:34:01;96832.38;;;11.59;100.00
498;BME280;39559;48.630;9.162;2023-04-23T00:36:26;96839.09;;;11.63;100.00
498;BME280;39559;48.630;9.162;2023-04-23T00:38:52;96835.00;;;11.59;100.00
498;BME280;39559;48.630;9.162;2023-04-23T00:41:18;96836.56;;;11.62;100.00
498;BME280;39559;48.630;9.162;2023-04-23T00:43:43;96842.84;;;11.74;100.00
498;BME280;39559;48.630;9.162;2023-04-23T00:46:10;96843.75;;;11.72;100.00
498;BME280;39559;48.630;9.162;2023-04-23T00:50:41;96847.94;;;11.45;100.00
498;BME280;39559;48.630;9.162;2023-04-23T00:53:06;96855.06;;;11.41;100.00
498;BME280;39559;48.630;9.162;2023-04-23T00:55:32;96848.53;;;11.34;100.00
498;BME280;39559;48.630;9.162;2023-04-23T00:57:59;96859.94;;;11.31;100.00
498;BME280;39559;48.630;9.162;2023-04-23T01:00:25;96854.56;;;11.19;100.00
498;BME280;39559;48.630;9.162;2023-04-23T01:02:51;96863.13;;;11.05;100.00
498;BME280;39559;48.630;9.162;2023-04-23T01:05:18;96862.63;;;10.98;100.00
498;BME280;39559;48.630;9.162;2023-04-23T01:07:45;96862.53;;;10.84;100.00
498;BME280;39559;48.630;9.162;2023-04-23T01:10:11;96873.16;;;10.63;100.00
498;BME280;39559;48.630;9.162;2023-04-23T01:14:37;96870.00;;;10.41;100.00
498;BME280;39559;48.630;9.162;2023-04-23T01:17:04;96871.13;;;10.35;100.00
498;BME280;39559;48.630;9.162;2023-04-23T01:19:30;96873.94;;;10.30;100.00
498;BME280;39559;48.630;9.162;2023-04-23T01:21:56;96869.84;;;10.26;100.00
498;BME280;39559;48.630;9.162;2023-04-23T01:24:26;96874.09;;;10.27;100.00
498;BME280;39559;48.630;9.162;2023-04-23T01:26:53;96881.06;;;10.27;100.00
498;BME280;39559;48.630;9.162;2023-04-23T01:29:19;96870.66;;;10.27;100.00
498;BME280;39559;48.630;9.162;2023-04-23T01:31:46;96877.44;;;10.29;100.00
498;BME280;39559;48.630;9.162;2023-04-23T01:34:13;96875.72;;;10.30;100.00
498;BME280;39559;48.630;9.162;2023-04-23T01:38:35;96879.22;;;10.29;100.00
498;BME280;39559;48.630;9.162;2023-04-23T01:41:02;96880.03;;;10.29;100.00
498;BME280;39559;48.630;9.162;2023-04-23T01:43:28;96882.81;;;10.26;100.00
498;BME280;39559;48.630;9.162;2023-04-23T01:45:54;96882.75;;;10.28;100.00
498;BME280;39559;48.630;9.162;2023-04-23T01:48:20;96886.63;;;10.36;100.00
498;BME280;39559;48.630;9.162;2023-04-23T01:50:45;96879.94;;;10.32;100.00
498;BME280;39559;48.630;9.162;2023-04-23T01:53:11;96885.13;;;10.32;100.00
498;BME280;39559;48.630;9.162;2023-04-23T01:55:37;96886.63;;;10.36;100.00
498;BME280;39559;48.630;9.162;2023-04-23T01:58:03;96889.16;;;10.38;100.00
498;BME280;39559;48.630;9.162;2023-04-23T02:02:31;96887.38;;;10.38;100.00
498;BME280;39559;48.630;9.162;2023-04-23T02:04:58;96896.88;;;10.40;100.00
498;BME280;39559;48.630;9.162;2023-04-23T02:07:26;96892.28;;;10.45;100.00
498;BME280;39559;48.630;9.162;2023-04-23T02:09:51;96897.69;;;10.40;100.00
498;BME280;39559;48.630;9.162;2023-04-23T02:12:17;96900.75;;;10.31;100.00
498;BME280;39559;48.630;9.162;2023-04-23T02:14:43;96893.81;;;10.31;100.00
498;BME280;39559;48.630;9.162;2023-04-23T02:17:08;96903.22;;;10.34;100.00
498;BME280;39559;48.630;9.162;2023-04-23T02:19:34;96907.84;;;10.27;100.00
498;BME280;39559;48.630;9.162;2023-04-23T02:22:00;96901.97;;;10.24;100.00
498;BME280;39559;48.630;9.162;2023-04-23T02:26:28;96893.41;;;10.22;100.00
498;BME280;39559;48.630;9.162;2023-04-23T02:28:54;96890.13;;;10.18;100.00
498;BME280;39559;48.630;9.162;2023-04-23T02:31:22;96896.88;;;10.05;100.00
498;BME280;39559;48.630;9.162;2023-04-23T02:33:48;96904.78;;;10.02;100.00
498;BME280;39559;48.630;9.162;2023-04-23T02:36:14;96893.50;;;10.03;100.00
498;BME280;39559;48.630;9.162;2023-04-23T02:38:40;96896.19;;;10.01;100.00
498;BME280;39559;48.630;9.162;2023-04-23T02:41:06;96904.09;;;9.98;100.00
498;BME280;39559;48.630;9.162;2023-04-23T02:43:32;96908.59;;;9.94;100.00
498;BME280;39559;48.630;9.162;2023-04-23T02:45:58;96911.88;;;9.98;100.00
498;BME280;39559;48.630;9.162;2023-04-23T02:50:27;96912.97;;;9.94;100.00
498;BME280;39559;48.630;9.162;2023-04-23T02:52:56;96912.19;;;9.92;100.00
498;BME280;39559;48.630;9.162;2023-04-23T02:55:23;96910.75;;;9.86;100.00
498;BME280;39559;48.630;9.162;2023-04-23T02:57:51;96912.28;;;9.90;100.00
498;BME280;39559;48.630;9.162;2023-04-23T03:00:17;96906.25;;;9.90;100.00
498;BME280;39559;48.630;9.162;2023-04-23T03:02:42;96906.47;;;9.85;100.00
498;BME280;39559;48.630;9.162;2023-04-23T03:05:09;96898.63;;;9.87;100.00
498;BME280;39559;48.630;9.162;2023-04-23T03:07:35;96898.47;;;9.90;100.00
498;BME280;39559;48.630;9.162;2023-04-23T03:10:00;96904.81;;;9.84;100.00
498;BME280;39559;48.630;9.162;2023-04-23T03:14:23;96906.84;;;9.77;100.00
498;BME280;39559;48.630;9.162;2023-04-23T03:16:49;96889.53;;;9.78;100.00
498;BME280;39559;48.630;9.162;2023-04-23T03:19:14;96889.53;;;9.78;100.00
498;BME280;39559;48.630;9.162;2023-04-23T03:21:40;96878.94;;;9.83;100.00
498;BME280;39559;48.630;9.162;2023-04-23T03:24:06;96879.16;;;9.78;100.00
498;BME280;39559;48.630;9.162;2023-04-23T03:26:32;96884.19;;;9.81;100.00
498;BME280;39559;48.630;9.162;2023-04-23T03:28:59;96884.19;;;9.81;100.00
498;BME280;39559;48.630;9.162;2023-04-23T03:31:24;96889.31;;;9.83;100.00
498;BME280;39559;48.630;9.162;2023-04-23T03:33:50;96879.47;;;9.89;100.00
498;BME280;39559;48.630;9.162;2023-04-23T03:38:20;96882.97;;;9.88;100.00
498;BME280;39559;48.630;9.162;2023-04-23T03:40:45;96880.06;;;9.94;100.00
498;BME280;39559;48.630;9.162;2023-04-23T03:43:11;96873.69;;;9.84;100.00
498;BME280;39559;48.630;9.162;2023-04-23T03:45:37;96876.88;;;9.89;100.00
498;BME280;39559;48.630;9.162;2023-04-23T03:48:03;96896.06;;;9.68;100.00
498;BME280;39559;48.630;9.162;2023-04-23T03:50:29;96892.13;;;9.60;100.00
498;BME280;39559;48.630;9.162;2023-04-23T03:52:54;96902.03;;;9.70;100.00
498;BME280;39559;48.630;9.162;2023-04-23T03:55:20;96908.88;;;9.71;100.00
498;BME280;39559;48.630;9.162;2023-04-23T03:57:45;96913.94;;;9.74;100.00
498;BME280;39559;48.630;9.162;2023-04-23T04:02:17;96906.53;;;9.66;100.00
498;BME280;39559;48.630;9.162;2023-04-23T04:04:42;96909.03;;;9.68;100.00
498;BME280;39559;48.630;9.162;2023-04-23T04:07:11;96905.66;;;9.48;100.00
498;BME280;39559;48.630;9.162;2023-04-23T04:09:37;96910.53;;;9.54;100.00
498;BME280;39559;48.630;9.162;2023-04-23T04:12:04;96916.41;;;9.58;100.00
498;BME280;39559;48.630;9.162;2023-04-23T04:14:31;96915.09;;;9.49;100.00
498;BME280;39559;48.630;9.162;2023-04-23T04:16:57;96912.75;;;9.62;100.00
498;BME280;39559;48.630;9.162;2023-04-23T04:19:23;96911.16;;;9.59;100.00
498;BME280;39559;48.630;9.162;2023-04-23T04:21:49;96906.97;;;9.57;100.00
498;BME280;39559;48.630;9.162;2023-04-23T04:26:14;96905.22;;;9.57;100.00
498;BME280;39559;48.630;9.162;2023-04-23T04:28:40;96910.16;;;9.62;100.00
498;BME280;39559;48.630;9.162;2023-04-23T04:31:06;96910.25;;;9.60;100.00
498;BME280;39559;48.630;9.162;2023-04-23T04:33:33;96908.94;;;9.52;100.00
498;BME280;39559;48.630;9.162;2023-04-23T04:36:00;96907.50;;;9.46;100.00
498;BME280;39559;48.630;9.162;2023-04-23T04:38:26;96915.47;;;9.41;100.00
498;BME280;39559;48.630;9.162;2023-04-23T04:40:57;96909.31;;;9.25;100.00
498;BME280;39559;48.630;9.162;2023-04-23T04:43:26;96901.88;;;9.36;100.00
498;BME280;39559;48.630;9.162;2023-04-23T04:45:52;96909.44;;;9.41;100.00
498;BME280;39559;48.630;9.162;2023-04-23T04:50:11;96909.44;;;9.41;100.00
498;BME280;39559;48.630;9.162;2023-04-23T04:52:37;96908.78;;;9.55;100.00
498;BME280;39559;48.630;9.162;2023-04-23T04:55:03;96900.22;;;9.35;100.00
498;BME280;39559;48.630;9.162;2023-04-23T04:57:31;96900.97;;;9.18;100.00
498;BME280;39559;48.630;9.162;2023-04-23T04:59:56;96904.94;;;9.08;100.00
498;BME280;39559;48.630;9.162;2023-04-23T05:02:22;96910.75;;;9.13;100.00
498;BME280;39559;48.630;9.162;2023-04-23T05:04:48;96912.34;;;9.16;100.00
498;BME280;39559;48.630;9.162;2023-04-23T05:07:14;96913.88;;;9.20;100.00
498;BME280;39559;48.630;9.162;2023-04-23T05:09:39;96911.84;;;9.27;100.00
498;BME280;39559;48.630;9.162;2023-04-23T05:14:09;96912.41;;;9.33;100.00
498;BME280;39559;48.630;9.162;2023-04-23T05:16:35;96906.97;;;9.20;100.00
498;BME280;39559;48.630;9.162;2023-04-23T05:19:00;96911.09;;;9.25;100.00
498;BME280;39559;48.630;9.162;2023-04-23T05:21:26;96910.09;;;9.27;100.00
498;BME280;39559;48.630;9.162;2023-04-23T05:23:53;96911.34;;;9.37;100.00
498;BME280;39559;48.630;9.162;2023-04-23T05:26:19;96915.34;;;9.45;100.00
498;BME280;39559;48.630;9.162;2023-04-23T05:28:45;96911.59;;;9.50;100.00
498;BME280;39559;48.630;9.162;2023-04-23T05:31:10;96912.94;;;9.59;100.00
498;BME280;39559;48.630;9.162;2023-04-23T05:33:37;96913.38;;;9.67;100.00
498;BME280;39559;48.630;9.162;2023-04-23T05:38:07;96912.72;;;9.81;100.00
498;BME280;39559;48.630;9.162;2023-04-23T05:40:33;96911.09;;;9.78;100.00
498;BME280;39559;48.630;9.162;2023-04-23T05:42:59;96900.84;;;9.77;100.00
498;BME280;39559;48.630;9.162;2023-04-23T05:45:25;96900.44;;;9.85;100.00
498;BME280;39559;48.630;9.162;2023-04-23T05:47:50;96899.91;;;9.95;100.00
498;BME280;39559;48.630;9.162;2023-04-23T05:50:17;96894.81;;;9.94;100.00
498;BME280;39559;48.630;9.162;2023-04-23T05:52:42;96900.22;;;9.89;100.00
498;BME280;39559;48.630;9.162;2023-04-23T05:55:08;96901.75;;;9.93;100.00
498;BME280;39559;48.630;9.162;2023-04-23T05:57:38;96895.94;;;10.06;100.00
498;BME280;39559;48.630;9.162;2023-04-23T06:02:04;96902.34;;;10.16;100.00
498;BME280;39559;48.630;9.162;2023-04-23T06:04:29;96911.50;;;10.06;100.00
498;BME280;39559;48.630;9.162;2023-04-23T06:06:55;96920.97;;;10.07;100.00
498;BME280;39559;48.630;9.162;2023-04-23T06:09:21;96915.63;;;10.27;100.00
498;BME280;39559;48.630;9.162;2023-04-23T06:11:47;96918.66;;;10.53;100.00
498;BME280;39559;48.630;9.162;2023-04-23T06:14:15;96921.16;;;10.72;100.00
498;BME280;39559;48.630;9.162;2023-04-23T06:16:41;96907.03;;;10.78;100.00
498;BME280;39559;48.630;9.162;2023-04-23T06:19:06;96912.81;;;10.99;100.00
498;BME280;39559;48.630;9.162;2023-04-23T06:21:33;96916.75;;;10.90;100.00
498;BME280;39559;48.630;9.162;2023-04-23T06:26:02;96912.44;;;11.06;100.00
498;BME280;39559;48.630;9.162;2023-04-23T06:28:28;96919.91;;;11.28;100.00
498;BME280;39559;48.630;9.162;2023-04-23T06:30:54;96918.13;;;11.29;100.00
498;BME280;39559;48.630;9.162;2023-04-23T06:33:20;96913.09;;;11.10;100.00
498;BME280;39559;48.630;9.162;2023-04-23T06:35:45;96906.63;;;11.01;100.00
498;BME280;39559;48.630;9.162;2023-04-23T06:38:11;96902.63;;;11.11;100.00
498;BME280;39559;48.630;9.162;2023-04-23T06:40:37;96906.78;;;10.98;100.00
498;BME280;39559;48.630;9.162;2023-04-23T06:43:02;96899.00;;;10.98;100.00
498;BME280;39559;48.630;9.162;2023-04-23T06:45:30;96897.50;;;10.94;100.00
498;BME280;39559;48.630;9.162;2023-04-23T06:49:59;96903.72;;;11.23;100.00
498;BME280;39559;48.630;9.162;2023-04-23T06:52:25;96901.66;;;11.60;100.00
498;BME280;39559;48.630;9.162;2023-04-23T06:54:51;96903.75;;;11.69;100.00
498;BME280;39559;48.630;9.162;2023-04-23T06:57:17;96898.69;;;11.82;100.00
498;BME280;39559;48.630;9.162;2023-04-23T06:59:42;96887.34;;;11.99;100.00
498;BME280;39559;48.630;9.162;2023-04-23T07:02:08;96887.69;;;11.93;100.00
498;BME280;39559;48.630;9.162;2023-04-23T07:04:34;96889.88;;;11.85;100.00
498;BME280;39559;48.630;9.162;2023-04-23T07:06:59;96892.41;;;11.86;100.00
498;BME280;39559;48.630;9.162;2023-04-23T07:09:44;96874.44;;;11.98;100.00
498;BME280;39559;48.630;9.162;2023-04-23T07:13:57;96864.66;;;12.32;100.00
498;BME280;39559;48.630;9.162;2023-04-23T07:16:22;96866.31;;;12.33;100.00
498;BME280;39559;48.630;9.162;2023-04-23T07:18:49;96869.84;;;12.60;100.00
498;BME280;39559;48.630;9.162;2023-04-23T07:21:15;96873.84;;;12.80;100.00
498;BME280;39559;48.630;9.162;2023-04-23T07:23:41;96873.75;;;12.96;100.00
498;BME280;39559;48.630;9.162;2023-04-23T07:26:06;96879.91;;;12.95;100.00
498;BME280;39559;48.630;9.162;2023-04-23T07:28:32;96871.59;;;13.03;100.00
498;BME280;39559;48.630;9.162;2023-04-23T07:30:58;96881.69;;;13.22;100.00
498;BME280;39559;48.630;9.162;2023-04-23T07:33:23;96869.63;;;13.35;100.00
498;BME280;39559;48.630;9.162;2023-04-23T07:37:54;96864.75;;;13.83;100.00
498;BME280;39559;48.630;9.162;2023-04-23T07:40:22;96860.06;;;13.89;100.00
498;BME280;39559;48.630;9.162;2023-04-23T07:42:49;96851.84;;;14.20;100.00
498;BME280;39559;48.630;9.162;2023-04-23T07:45:15;96856.03;;;14.36;100.00
498;BME280;39559;48.630;9.162;2023-04-23T07:47:41;96855.00;;;14.38;100.00
498;BME280;39559;48.630;9.162;2023-04-23T07:50:07;96849.56;;;14.54;100.00
498;BME280;39559;48.630;9.162;2023-04-23T07:52:33;96855.97;;;14.63;100.00
498;BME280;39559;48.630;9.162;2023-04-23T07:54:59;96860.44;;;14.35;100.00
498;BME280;39559;48.630;9.162;2023-04-23T07:57:24;96857.59;;;14.38;100.00
498;BME280;39559;48.630;9.162;2023-04-23T08:01:51;96851.44;;;14.39;100.00
498;BME280;39559;48.630;9.162;2023-04-23T08:04:17;96843.72;;;14.38;100.00
498;BME280;39559;48.630;9.162;2023-04-23T08:06:43;96840.78;;;14.81;100.00
498;BME280;39559;48.630;9.162;2023-04-23T08:09:08;96842.06;;;14.50;99.02
498;BME280;39559;48.630;9.162;2023-04-23T08:11:34;96846.13;;;14.67;100.00
498;BME280;39559;48.630;9.162;2023-04-23T08:14:00;96843.59;;;14.78;100.00
498;BME280;39559;48.630;9.162;2023-04-23T08:16:28;96831.94;;;14.95;99.48
498;BME280;39559;48.630;9.162;2023-04-23T08:18:56;96838.22;;;15.05;99.18
498;BME280;39559;48.630;9.162;2023-04-23T08:21:23;96843.06;;;14.86;96.12
498;BME280;39559;48.630;9.162;2023-04-23T08:25:49;96832.63;;;14.09;100.00
498;BME280;39559;48.630;9.162;2023-04-23T08:28:15;96834.00;;;14.66;100.00
498;BME280;39559;48.630;9.162;2023-04-23T08:30:40;96826.38;;;14.75;100.00
498;BME280;39559;48.630;9.162;2023-04-23T08:33:06;96826.34;;;14.88;96.47
498;BME280;39559;48.630;9.162;2023-04-23T08:35:32;96820.28;;;14.75;96.98
498;BME280;39559;48.630;9.162;2023-04-23T08:37:57;96823.13;;;14.72;97.15
498;BME280;39559;48.630;9.162;2023-04-23T08:40:25;96821.44;;;14.71;96.59
498;BME280;39559;48.630;9.162;2023-04-23T08:43:01;96830.22;;;14.06;93.82
498;BME280;39559;48.630;9.162;2023-04-23T08:45:28;96823.53;;;14.01;99.27
498;BME280;39559;48.630;9.162;2023-04-23T08:49:46;96821.91;;;14.65;98.57
498;BME280;39559;48.630;9.162;2023-04-23T08:52:16;96820.66;;;14.94;92.32
498;BME280;39559;48.630;9.162;2023-04-23T08:54:48;96816.59;;;15.27;89.39
498;BME280;39559;48.630;9.162;2023-04-23T08:57:16;96819.34;;;14.76;90.07
498;BME280;39559;48.630;9.162;2023-04-23T08:59:43;96811.00;;;14.71;85.79
498;BME280;39559;48.630;9.162;2023-04-23T09:02:09;96805.69;;;14.96;84.77
498;BME280;39559;48.630;9.162;2023-04-23T09:04:36;96806.28;;;14.76;87.27
498;BME280;39559;48.630;9.162;2023-04-23T09:07:02;96803.97;;;14.71;88.16
498;BME280;39559;48.630;9.162;2023-04-23T09:09:29;96810.69;;;14.50;90.25
498;BME280;39559;48.630;9.162;2023-04-23T09:13:45;96804.84;;;14.72;87.06
498;BME280;39559;48.630;9.162;2023-04-23T09:16:11;96804.84;;;14.08;89.87
498;BME280;39559;48.630;9.162;2023-04-23T09:18:37;96795.56;;;14.16;87.86
498;BME280;39559;48.630;9.162;2023-04-23T09:21:03;96791.84;;;14.83;88.97
498;BME280;39559;48.630;9.162;2023-04-23T09:23:30;96783.16;;;15.55;83.69
498;BME280;39559;48.630;9.162;2023-04-23T09:25:56;96779.50;;;15.93;79.40
498;BME280;39559;48.630;9.162;2023-04-23T09:28:33;96771.78;;;15.67;76.52
498;BME280;39559;48.630;9.162;2023-04-23T09:31:00;96755.72;;;16.19;79.26
498;BME280;39559;48.630;9.162;2023-04-23T09:33:27;96763.81;;;16.27;77.02
498;BME280;39559;48.630;9.162;2023-04-23T09:37:42;96759.94;;;15.39;79.56
498;BME280;39559;48.630;9.162;2023-04-23T09:40:08;96760.97;;;15.36;84.62
498;BME280;39559;48.630;9.162;2023-04-23T09:42:37;96764.31;;;15.39;80.42
498;BME280;39559;48.630;9.162;2023-04-23T09:45:05;96765.13;;;15.63;74.88
498;BME280;39559;48.630;9.162;2023-04-23T09:47:55;96762.69;;;15.49;77.61
498;BME280;39559;48.630;9.162;2023-04-23T09:50:35;96764.38;;;15.50;79.14
498;BME280;39559;48.630;9.162;2023-04-23T09:53:07;96757.91;;;15.43;79.71
498;BME280;39559;48.630;9.162;2023-04-23T09:55:37;96760.72;;;15.28;83.97
498;BME280;39559;48.630;9.162;2023-04-23T09:58:05;96762.47;;;15.28;81.83
498;BME280;39559;48.630;9.162;2023-04-23T10:01:43;96748.16;;;15.45;82.32
498;BME280;39559;48.630;9.162;2023-04-23T10:04:11;96746.53;;;15.55;83.44
498;BME280;39559;48.630;9.162;2023-04-23T10:06:37;96739.72;;;15.77;85.14
498;BME280;39559;48.630;9.162;2023-04-23T10:09:03;96740.69;;;15.76;80.40
498;BME280;39559;48.630;9.162;2023-04-23T10:11:28;96730.09;;;15.77;75.62
498;BME280;39559;48.630;9.162;2023-04-23T10:13:54;96707.47;;;15.99;80.70
498;BME280;39559;48.630;9.162;2023-04-23T10:16:21;96716.47;;;15.72;72.69
498;BME280;39559;48.630;9.162;2023-04-23T10:18:50;96714.16;;;16.03;78.51
498;BME280;39559;48.630;9.162;2023-04-23T10:21:16;96713.91;;;16.40;83.19
498;BME280;39559;48.630;9.162;2023-04-23T10:25:39;96702.53;;;16.73;69.46
498;BME280;39559;48.630;9.162;2023-04-23T10:28:08;96703.97;;;16.77;68.60
498;BME280;39559;48.630;9.162;2023-04-23T10:30:36;96712.81;;;16.65;72.83
498;BME280;39559;48.630;9.162;2023-04-23T10:33:03;96695.88;;;16.69;68.40
498;BME280;39559;48.630;9.162;2023-04-23T10:35:28;96700.97;;;16.93;67.41
498;BME280;39559;48.630;9.162;2023-04-23T10:37:55;96694.19;;;16.91;67.25
498;BME280;39559;48.630;9.162;2023-04-23T10:43:28;96675.41;;;17.70;65.02
498;BME280;39559;48.630;9.162;2023-04-23T10:45:55;96677.06;;;18.13;65.01
498;BME280;39559;48.630;9.162;2023-04-23T10:49:34;96673.03;;;17.24;63.97
498;BME280;39559;48.630;9.162;2023-04-23T10:52:07;96668.09;;;16.89;63.09
498;BME280;39559;48.630;9.162;2023-04-23T10:54:34;96667.28;;;16.77;61.84
498;BME280;39559;48.630;9.162;2023-04-23T10:57:03;96663.91;;;16.75;68.57
498;BME280;39559;48.630;9.162;2023-04-23T10:59:32;96661.50;;;16.40;68.85
498;BME280;39559;48.630;9.162;2023-04-23T11:04:33;96659.28;;;16.90;68.21
498;BME280;39559;48.630;9.162;2023-04-23T11:07:07;96657.56;;;17.63;64.67
498;BME280;39559;48.630;9.162;2023-04-23T11:13:28;96652.63;;;15.97;71.04
498;BME280;39559;48.630;9.162;2023-04-23T11:16:14;96656.16;;;16.41;70.54
498;BME280;39559;48.630;9.162;2023-04-23T11:21:56;96653.94;;;16.03;68.04
498;BME280;39559;48.630;9.162;2023-04-23T11:26:54;96638.88;;;17.15;68.67
498;BME280;39559;48.630;9.162;2023-04-23T11:29:23;96631.72;;;17.17;64.31
498;BME280;39559;48.630;9.162;2023-04-23T11:31:52;96641.13;;;17.19;69.23
498;BME280;39559;48.630;9.162;2023-04-23T11:34:18;96628.16;;;16.85;68.23
498;BME280;39559;48.630;9.162;2023-04-23T11:37:26;96624.19;;;17.44;65.15
498;BME280;39559;48.630;9.162;2023-04-23T11:39:53;96623.03;;;17.37;64.48
498;BME280;39559;48.630;9.162;2023-04-23T11:42:22;96618.91;;;17.75;64.97
498;BME280;39559;48.630;9.162;2023-04-23T11:44:49;96621.72;;;17.11;63.01
498;BME280;39559;48.630;9.162;2023-04-23T11:47:15;96615.53;;;17.33;66.52
498;BME280;39559;48.630;9.162;2023-04-23T11:49:47;96607.00;;;16.98;66.07
498;BME280;39559;48.630;9.162;2023-04-23T11:52:21;96612.06;;;16.79;64.28
498;BME280;39559;48.630;9.162;2023-04-23T11:54:48;96595.13;;;17.67;66.92
498;BME280;39559;48.630;9.162;2023-04-23T11:57:13;96576.25;;;18.23;63.30
498;BME280;39559;48.630;9.162;2023-04-23T12:01:21;96573.66;;;18.53;61.62
498;BME280;39559;48.630;9.162;2023-04-23T12:03:49;96575.38;;;17.73;64.86
498;BME280;39559;48.630;9.162;2023-04-23T12:06:17;96584.44;;;17.07;63.26
498;BME280;39559;48.630;9.162;2023-04-23T12:08:45;96584.69;;;17.04;62.38
498;BME280;39559;48.630;9.162;2023-04-23T12:11:11;96587.94;;;16.96;64.63
498;BME280;39559;48.630;9.162;2023-04-23T12:13:39;96582.81;;;16.95;65.22
498;BME280;39559;48.630;9.162;2023-04-23T12:16:05;96577.63;;;18.18;60.64
498;BME280;39559;48.630;9.162;2023-04-23T12:18:32;96571.84;;;18.53;61.91
498;BME280;39559;48.630;9.162;2023-04-23T12:21:12;96561.91;;;18.37;57.06
498;BME280;39559;48.630;9.162;2023-04-23T12:25:21;96562.63;;;18.98;57.44
498;BME280;39559;48.630;9.162;2023-04-23T12:27:47;96551.81;;;19.01;56.67
498;BME280;39559;48.630;9.162;2023-04-23T12:30:13;96540.56;;;20.21;55.52
498;BME280;39559;48.630;9.162;2023-04-23T12:32:40;96537.03;;;20.48;56.14
498;BME280;39559;48.630;9.162;2023-04-23T12:35:06;96545.75;;;19.85;51.88
498;BME280;39559;48.630;9.162;2023-04-23T12:37:35;96537.09;;;19.18;55.47
498;BME280;39559;48.630;9.162;2023-04-23T12:40:02;96532.97;;;18.57;55.12
498;BME280;39559;48.630;9.162;2023-04-23T12:42:31;96526.91;;;18.86;57.56
498;BME280;39559;48.630;9.162;2023-04-23T12:45:07;96521.72;;;20.16;56.69
498;BME280;39559;48.630;9.162;2023-04-23T12:49:11;96521.66;;;20.80;55.77
498;BME280;39559;48.630;9.162;2023-04-23T12:51:37;96509.00;;;21.62;52.74
498;BME280;39559;48.630;9.162;2023-04-23T12:54:03;96504.94;;;22.35;49.05
498;BME280;39559;48.630;9.162;2023-04-23T12:56:28;96510.56;;;21.20;47.32
498;BME280;39559;48.630;9.162;2023-04-23T12:58:54;96507.28;;;19.92;49.10
498;BME280;39559;48.630;9.162;2023-04-23T13:01:20;96499.44;;;20.64;48.52
498;BME280;39559;48.630;9.162;2023-04-23T13:03:45;96489.56;;;22.38;48.82
498;BME280;39559;48.630;9.162;2023-04-23T13:06:11;96485.44;;;23.10;47.81
498;BME280;39559;48.630;9.162;2023-04-23T13:08:37;96477.31;;;23.03;47.14
498;BME280;39559;48.630;9.162;2023-04-23T13:13:07;96474.78;;;21.60;46.98
498;BME280;39559;48.630;9.162;2023-04-23T13:15:33;96477.19;;;20.31;47.64
498;BME280;39559;48.630;9.162;2023-04-23T13:17:58;96478.72;;;18.66;53.69
498;BME280;39559;48.630;9.162;2023-04-23T13:20:24;96477.78;;;19.24;54.38
498;BME280;39559;48.630;9.162;2023-04-23T13:22:50;96459.41;;;19.97;52.60
498;BME280;39559;48.630;9.162;2023-04-23T13:25:16;96461.41;;;19.30;50.88
498;BME280;39559;48.630;9.162;2023-04-23T13:27:41;96456.25;;;20.11;54.31
498;BME280;39559;48.630;9.162;2023-04-23T13:30:07;96452.28;;;18.67;54.48
498;BME280;39559;48.630;9.162;2023-04-23T13:32:33;96440.81;;;18.68;50.94
498;BME280;39559;48.630;9.162;2023-04-23T13:37:03;96443.69;;;19.22;53.77
498;BME280;39559;48.630;9.162;2023-04-23T13:39:30;96438.72;;;18.82;53.73
498;BME280;39559;48.630;9.162;2023-04-23T13:41:56;96433.34;;;17.95;53.20
498;BME280;39559;48.630;9.162;2023-04-23T13:44:22;96438.16;;;17.71;56.12
498;BME280;39559;48.630;9.162;2023-04-23T13:46:48;96432.06;;;17.20;56.68
498;BME280;39559;48.630;9.162;2023-04-23T13:49:14;96429.19;;;17.83;58.45
498;BME280;39559;48.630;9.162;2023-04-23T13:51:39;96423.22;;;18.88;57.62
498;BME280;39559;48.630;9.162;2023-04-23T13:54:05;96402.25;;;19.34;63.23
498;BME280;39559;48.630;9.162;2023-04-23T13:56:31;96402.59;;;19.67;61.97
498;BME280;39559;48.630;9.162;2023-04-23T14:00:58;96391.63;;;20.25;57.64
498;BME280;39559;48.630;9.162;2023-04-23T14:03:24;96394.19;;;20.79;54.45
498;BME280;39559;48.630;9.162;2023-04-23T14:05:50;96390.44;;;20.64;56.58
498;BME280;39559;48.630;9.162;2023-04-23T14:08:15;96381.63;;;20.55;54.13
498;BME280;39559;48.630;9.162;2023-04-23T14:10:41;96369.75;;;20.77;54.93
498;BME280;39559;48.630;9.162;2023-04-23T14:13:06;96374.00;;;20.26;51.91
498;BME280;39559;48.630;9.162;2023-04-23T14:15:32;96365.91;;;20.63;54.62
498;BME280;39559;48.630;9.162;2023-04-23T14:18:00;96367.97;;;20.78;53.99
498;BME280;39559;48.630;9.162;2023-04-23T14:20:25;96364.66;;;20.13;52.72
498;BME280;39559;48.630;9.162;2023-04-23T14:24:56;96357.09;;;19.74;58.01
498;BME280;39559;48.630;9.162;2023-04-23T14:27:22;96355.78;;;19.61;53.95
498;BME280;39559;48.630;9.162;2023-04-23T14:29:56;96354.84;;;19.34;58.05
498;BME280;39559;48.630;9.162;2023-04-23T14:32:22;96355.66;;;19.34;56.45
498;BME280;39559;48.630;9.162;2023-04-23T14:34:49;96346.28;;;19.50;58.22
498;BME280;39559;48.630;9.162;2023-04-23T14:37:14;96340.00;;;19.79;57.50